Time;durP1;ratioP1;P1;durP2;ratioP2;P2;SDS_P1;SDS_P2;PMS_P1;PMS_P2;Temp;Humidity;BMP_temperature;BMP_pressure;BME280_temperature;BME280_humidity;BME280_pressure;Samples;Min_cycle;Max_cycle;Signal;HPM_P1;HPM_P2
2022/08/29 00:02:23;;;;;;;6.60;1.98;;;25.70;53.70;;;;;;5061311;28;20060;-66
2022/08/29 00:04:48;;;;;;;2.17;1.60;;;25.70;53.70;;;;;;5061141;28;20388;-65
2022/08/29 00:07:14;;;;;;;2.72;1.40;;;25.70;53.70;;;;;;5061953;28;20037;-65
2022/08/29 00:09:40;;;;;;;2.08;1.50;;;25.70;53.70;;;;;;5060559;28;20783;-65
2022/08/29 00:12:06;;;;;;;2.20;1.60;;;25.70;53.70;;;;;;5062099;28;20557;-65
2022/08/29 00:14:32;;;;;;;2.03;1.50;;;25.70;53.70;;;;;;5059032;28;20449;-67
2022/08/29 00:16:58;;;;;;;2.10;1.50;;;25.70;53.70;;;;;;5060507;28;20048;-66
2022/08/29 00:19:23;;;;;;;2.30;1.60;;;25.70;53.70;;;;;;5059482;28;20024;-65
2022/08/29 00:21:49;;;;;;;2.53;1.60;;;25.70;53.70;;;;;;5061344;28;20438;-65
2022/08/29 00:24:15;;;;;;;1.90;1.60;;;25.70;53.70;;;;;;5061641;28;20021;-65
2022/08/29 00:26:41;;;;;;;1.95;1.50;;;25.70;53.70;;;;;;5060094;28;20408;-65
2022/08/29 00:29:07;;;;;;;2.28;1.52;;;25.70;53.70;;;;;;5061706;28;20029;-65
2022/08/29 00:31:32;;;;;;;2.15;1.50;;;25.70;53.70;;;;;;5059489;28;20580;-65
2022/08/29 00:33:58;;;;;;;2.35;1.50;;;25.70;53.70;;;;;;5058903;28;20037;-67
2022/08/29 00:36:25;;;;;;;2.00;1.58;;;25.70;53.70;;;;;;5060709;28;20029;-65
2022/08/29 00:38:50;;;;;;;1.92;1.38;;;25.70;53.70;;;;;;5060032;28;20472;-66
2022/08/29 00:41:16;;;;;;;2.00;1.45;;;25.70;53.70;;;;;;5058535;28;20035;-65
2022/08/29 00:43:42;;;;;;;2.10;1.40;;;25.70;53.70;;;;;;5060266;28;20024;-65
2022/08/29 00:46:28;;;;;;;1.85;1.48;;;25.70;53.70;;;;;;5060192;28;20021;-65
2022/08/29 00:48:59;;;;;;;2.63;1.58;;;25.70;53.70;;;;;;5060293;28;20025;-65
2022/08/29 00:51:25;;;;;;;2.08;1.50;;;25.70;53.60;;;;;;5060438;28;20044;-65
2022/08/29 00:53:57;;;;;;;2.10;1.50;;;25.70;53.70;;;;;;5059443;28;20028;-65
2022/08/29 00:56:24;;;;;;;1.95;1.40;;;25.70;53.70;;;;;;5059576;28;20133;-65
2022/08/29 00:58:57;;;;;;;2.40;1.50;;;25.60;53.60;;;;;;5061389;28;20388;-65
2022/08/29 01:01:23;;;;;;;1.98;1.52;;;25.60;53.60;;;;;;5058948;28;20400;-65
2022/08/29 01:03:50;;;;;;;1.73;1.40;;;25.60;53.60;;;;;;5061960;28;20029;-65
2022/08/29 01:06:16;;;;;;;1.92;1.45;;;25.60;53.60;;;;;;5060382;28;20036;-65
2022/08/29 01:08:43;;;;;;;1.70;1.30;;;25.70;53.70;;;;;;5060557;28;20029;-65
2022/08/29 01:13:58;;;;;;;1.88;1.48;;;25.70;53.70;;;;;;5059770;28;20059;-66
2022/08/29 01:16:26;;;;;;;1.88;1.50;;;25.60;53.60;;;;;;5057261;28;20040;-65
2022/08/29 01:18:56;;;;;;;2.13;1.63;;;25.60;53.60;;;;;;5059430;28;20024;-65
2022/08/29 01:21:57;;;;;;;1.92;1.50;;;25.60;53.50;;;;;;5059298;28;20063;-65
2022/08/29 01:24:44;;;;;;;1.85;1.50;;;25.60;53.60;;;;;;5059443;28;20460;-65
2022/08/29 01:27:11;;;;;;;1.85;1.40;;;25.70;53.60;;;;;;5063297;28;20020;-65
2022/08/29 01:29:37;;;;;;;2.13;1.50;;;25.60;53.50;;;;;;5063964;28;20377;-65
2022/08/29 01:32:04;;;;;;;2.00;1.52;;;25.60;53.50;;;;;;5063880;28;20032;-65
2022/08/29 01:34:30;;;;;;;2.22;1.48;;;25.60;53.60;;;;;;5063382;28;20029;-64
2022/08/29 01:37:01;;;;;;;1.73;1.40;;;25.60;53.60;;;;;;5065362;28;20488;-67
2022/08/29 01:39:36;;;;;;;2.00;1.38;;;25.60;53.50;;;;;;5063284;28;20518;-65
2022/08/29 01:42:19;;;;;;;1.50;1.30;;;25.60;53.60;;;;;;5063509;28;20056;-65
2022/08/29 01:44:50;;;;;;;1.92;1.42;;;25.60;53.50;;;;;;5063849;28;20021;-67
2022/08/29 01:47:16;;;;;;;1.50;1.27;;;25.60;53.50;;;;;;5062205;28;20025;-64
2022/08/29 01:49:41;;;;;;;1.70;1.35;;;25.60;53.50;;;;;;5063285;28;20043;-66
2022/08/29 01:52:07;;;;;;;1.40;1.20;;;25.60;53.50;;;;;;5064559;28;20480;-64
2022/08/29 01:54:33;;;;;;;2.10;1.45;;;25.60;53.50;;;;;;5064227;28;20090;-66
2022/08/29 01:57:00;;;;;;;1.70;1.40;;;25.60;53.40;;;;;;5063406;28;20064;-65
2022/08/29 01:59:28;;;;;;;1.50;1.30;;;25.60;53.50;;;;;;5064111;28;20056;-65
2022/08/29 02:02:22;;;;;;;1.70;1.38;;;25.60;53.40;;;;;;5062333;28;20035;-66
2022/08/29 02:04:48;;;;;;;1.65;1.20;;;25.60;53.40;;;;;;5063793;28;20031;-66
2022/08/29 02:07:16;;;;;;;1.77;1.45;;;25.60;53.40;;;;;;5065060;28;20031;-65
2022/08/29 02:09:42;;;;;;;1.60;1.23;;;25.60;53.40;;;;;;5061638;28;20039;-66
2022/08/29 02:12:09;;;;;;;1.85;1.50;;;25.60;53.40;;;;;;5063417;28;20031;-64
2022/08/29 02:14:35;;;;;;;1.52;1.30;;;25.60;53.40;;;;;;5063902;28;20509;-65
2022/08/29 02:17:05;;;;;;;1.33;1.20;;;25.60;53.40;;;;;;5062353;28;20036;-65
2022/08/29 02:19:32;;;;;;;1.80;1.33;;;25.60;53.40;;;;;;5063691;28;20027;-65
2022/08/29 02:21:59;;;;;;;1.63;1.40;;;25.60;53.30;;;;;;5077888;28;20028;-64
2022/08/29 02:24:24;;;;;;;1.52;1.27;;;25.60;53.30;;;;;;5061309;28;20025;-65
2022/08/29 02:26:50;;;;;;;1.35;1.17;;;25.60;53.40;;;;;;5061354;28;20354;-65
2022/08/29 02:29:16;;;;;;;1.38;1.20;;;25.60;53.40;;;;;;5064728;28;20383;-64
2022/08/29 02:31:42;;;;;;;1.58;1.20;;;25.60;53.40;;;;;;5064472;28;20036;-65
2022/08/29 02:34:08;;;;;;;1.73;1.25;;;25.60;53.30;;;;;;5059113;28;20025;-65
2022/08/29 02:36:35;;;;;;;1.88;1.30;;;25.60;53.30;;;;;;5059562;28;20025;-65
2022/08/29 02:39:01;;;;;;;1.80;1.40;;;25.60;53.30;;;;;;5063096;28;20420;-64
2022/08/29 02:41:27;;;;;;;1.42;1.20;;;25.60;53.30;;;;;;5063101;28;20528;-65
2022/08/29 02:43:53;;;;;;;1.70;1.30;;;25.60;53.30;;;;;;5062158;28;20025;-65
2022/08/29 02:46:20;;;;;;;1.48;1.30;;;25.60;53.30;;;;;;5063772;28;20041;-65
2022/08/29 02:48:46;;;;;;;2.13;1.27;;;25.60;53.30;;;;;;5062547;28;20476;-64
2022/08/29 02:51:38;;;;;;;1.60;1.27;;;25.60;53.30;;;;;;5063354;28;20195;-64
2022/08/29 02:54:03;;;;;;;1.70;1.50;;;25.60;53.30;;;;;;5060884;28;20450;-64
2022/08/29 02:56:29;;;;;;;1.40;1.30;;;25.60;53.30;;;;;;5062714;28;20107;-65
2022/08/29 02:58:56;;;;;;;1.65;1.23;;;25.60;53.30;;;;;;5062292;28;20021;-64
2022/08/29 03:01:22;;;;;;;1.45;1.25;;;25.60;53.30;;;;;;5062094;28;20072;-64
2022/08/29 03:03:52;;;;;;;1.65;1.30;;;25.50;53.20;;;;;;5063190;28;20078;-65
2022/08/29 03:06:19;;;;;;;1.65;1.35;;;25.60;53.30;;;;;;5059522;28;20106;-65
2022/08/29 03:08:45;;;;;;;2.05;1.40;;;25.60;53.30;;;;;;5062346;28;20119;-66
2022/08/29 03:11:10;;;;;;;1.52;1.25;;;25.60;53.30;;;;;;5061484;28;20556;-65
2022/08/29 03:13:36;;;;;;;1.45;1.20;;;25.50;53.20;;;;;;5061869;28;20132;-64
2022/08/29 03:16:03;;;;;;;1.70;1.30;;;25.60;53.30;;;;;;5062925;28;20381;-64
2022/08/29 03:18:29;;;;;;;1.70;1.20;;;25.60;53.30;;;;;;5061530;28;20029;-65
2022/08/29 03:20:55;;;;;;;1.55;1.20;;;25.50;53.20;;;;;;5062076;28;20029;-64
2022/08/29 03:23:20;;;;;;;1.75;1.30;;;25.50;53.20;;;;;;5061905;28;20393;-64
2022/08/29 03:25:46;;;;;;;1.75;1.38;;;25.50;53.20;;;;;;5062440;28;20028;-65
2022/08/29 03:28:11;;;;;;;1.50;1.30;;;25.60;53.20;;;;;;5061619;28;20074;-66
2022/08/29 03:30:37;;;;;;;1.45;1.20;;;25.50;53.20;;;;;;5062113;28;20027;-65
2022/08/29 03:33:04;;;;;;;1.35;1.17;;;25.60;53.30;;;;;;5062962;28;20417;-64
2022/08/29 03:35:30;;;;;;;1.42;1.20;;;25.50;53.10;;;;;;5060976;28;20044;-64
2022/08/29 03:37:57;;;;;;;1.52;1.15;;;25.50;53.20;;;;;;5063017;28;20518;-64
2022/08/29 03:40:23;;;;;;;1.83;1.30;;;25.50;53.10;;;;;;5061044;28;20542;-65
2022/08/29 03:42:49;;;;;;;1.48;1.20;;;25.50;53.20;;;;;;5062425;28;20031;-64
2022/08/29 03:45:17;;;;;;;1.58;1.30;;;25.50;53.10;;;;;;5061033;28;20473;-66
2022/08/29 03:47:43;;;;;;;1.60;1.27;;;25.50;53.10;;;;;;5060289;28;20033;-64
2022/08/29 03:50:11;;;;;;;1.80;1.27;;;25.50;53.10;;;;;;5061583;28;20035;-64
2022/08/29 03:52:38;;;;;;;1.60;1.30;;;25.50;53.10;;;;;;5062460;28;20044;-64
2022/08/29 03:55:06;;;;;;;1.50;1.20;;;25.50;53.10;;;;;;5057793;28;20024;-66
2022/08/29 03:57:33;;;;;;;1.50;1.20;;;25.50;53.10;;;;;;5060738;28;20037;-64
2022/08/29 04:00:00;;;;;;;1.40;1.30;;;25.50;53.10;;;;;;5059444;28;20028;-64
2022/08/29 04:02:26;;;;;;;1.42;1.10;;;25.50;53.10;;;;;;5060784;28;20392;-64
2022/08/29 04:05:07;;;;;;;1.50;1.20;;;25.50;53.10;;;;;;5062572;28;20021;-65
2022/08/29 04:07:46;;;;;;;1.70;1.40;;;25.50;53.10;;;;;;5060502;28;20029;-64
2022/08/29 04:10:15;;;;;;;1.80;1.40;;;25.50;53.10;;;;;;5060564;28;20525;-64
2022/08/29 04:12:41;;;;;;;1.52;1.30;;;25.50;53.10;;;;;;5059935;28;20037;-64
2022/08/29 04:15:07;;;;;;;1.52;1.20;;;25.40;53.10;;;;;;5060683;28;20028;-64
2022/08/29 04:17:33;;;;;;;1.40;1.20;;;25.50;53.10;;;;;;5061603;28;20025;-64
2022/08/29 04:19:59;;;;;;;1.42;1.20;;;25.40;53.10;;;;;;5061036;28;20446;-64
2022/08/29 04:22:24;;;;;;;1.67;1.30;;;25.50;53.10;;;;;;5060971;28;20048;-63
2022/08/29 04:24:51;;;;;;;1.50;1.30;;;25.40;53.00;;;;;;5060983;28;20100;-64
2022/08/29 04:27:16;;;;;;;1.45;1.08;;;25.40;53.00;;;;;;5060722;28;20473;-65
2022/08/29 04:29:42;;;;;;;1.73;1.25;;;25.40;53.10;;;;;;5060108;28;20643;-64
2022/08/29 04:32:08;;;;;;;2.05;1.30;;;25.50;53.10;;;;;;5061326;28;20422;-63
2022/08/29 04:34:33;;;;;;;1.50;1.30;;;25.40;53.00;;;;;;5060194;28;20369;-64
2022/08/29 04:36:59;;;;;;;1.42;1.20;;;25.40;53.00;;;;;;5060943;28;20083;-64
2022/08/29 04:39:25;;;;;;;1.75;1.33;;;25.40;53.00;;;;;;5060604;28;20069;-63
2022/08/29 04:41:50;;;;;;;1.40;1.13;;;25.40;53.00;;;;;;5061899;28;20020;-64
2022/08/29 04:44:16;;;;;;;1.70;1.30;;;25.40;53.00;;;;;;5058745;28;20028;-64
2022/08/29 04:46:41;;;;;;;1.40;1.20;;;25.40;53.10;;;;;;5060259;28;20501;-64
2022/08/29 04:49:07;;;;;;;1.42;1.20;;;25.40;53.10;;;;;;5060003;28;20445;-64
2022/08/29 04:51:34;;;;;;;1.65;1.33;;;25.40;53.00;;;;;;5061507;28;20055;-64
2022/08/29 04:54:00;;;;;;;2.47;1.30;;;25.40;53.00;;;;;;5060391;28;20093;-64
2022/08/29 04:56:26;;;;;;;1.38;1.20;;;25.40;53.00;;;;;;5060109;28;20040;-63
2022/08/29 04:58:51;;;;;;;1.67;1.33;;;25.40;53.00;;;;;;5061074;28;20099;-65
2022/08/29 05:01:21;;;;;;;1.50;1.30;;;25.40;53.00;;;;;;5061522;28;20530;-64
2022/08/29 05:03:47;;;;;;;1.30;1.17;;;25.40;53.00;;;;;;5063559;28;20492;-63
2022/08/29 05:06:15;;;;;;;1.25;1.15;;;25.40;53.00;;;;;;5063237;28;20072;-64
2022/08/29 05:08:42;;;;;;;1.50;1.20;;;25.40;53.00;;;;;;5063572;28;20119;-64
2022/08/29 05:11:15;;;;;;;1.45;1.20;;;25.40;53.00;;;;;;5064374;28;20032;-64
2022/08/29 05:13:41;;;;;;;2.30;1.38;;;25.40;53.00;;;;;;5064697;28;20500;-64
2022/08/29 05:16:08;;;;;;;2.30;1.95;;;25.40;53.00;;;;;;5063862;28;20477;-64
2022/08/29 05:18:34;;;;;;;2.53;1.90;;;25.40;52.20;;;;;;5064366;28;20036;-64
2022/08/29 05:21:00;;;;;;;2.47;2.08;;;25.40;51.10;;;;;;5064336;28;20040;-64
2022/08/29 05:23:26;;;;;;;2.80;2.00;;;25.40;50.70;;;;;;5064713;28;20472;-64
2022/08/29 05:25:57;;;;;;;2.85;1.92;;;25.40;50.10;;;;;;5064001;28;20418;-64
2022/08/29 05:28:23;;;;;;;3.05;2.20;;;25.30;49.30;;;;;;5063694;28;20029;-64
2022/08/29 05:30:49;;;;;;;2.22;1.73;;;25.30;49.10;;;;;;5063751;28;20031;-64
2022/08/29 05:33:16;;;;;;;2.45;1.90;;;25.20;48.80;;;;;;5064632;28;20083;-64
2022/08/29 05:35:42;;;;;;;3.08;1.80;;;25.20;49.00;;;;;;5063181;28;20472;-64
2022/08/29 05:38:08;;;;;;;2.92;2.17;;;25.20;49.00;;;;;;5064649;28;20119;-64
2022/08/29 05:40:34;;;;;;;2.40;1.85;;;25.20;48.60;;;;;;5064824;28;20626;-64
2022/08/29 05:43:00;;;;;;;2.15;1.80;;;25.10;48.60;;;;;;5063060;28;20107;-65
2022/08/29 05:45:26;;;;;;;2.30;1.80;;;25.10;48.70;;;;;;5063888;28;20177;-64
2022/08/29 05:47:52;;;;;;;2.80;1.70;;;25.20;48.50;;;;;;5064416;28;20600;-64
2022/08/29 05:50:17;;;;;;;2.33;1.67;;;25.10;48.60;;;;;;5063760;28;20117;-64
2022/08/29 05:52:43;;;;;;;2.20;1.75;;;25.10;48.60;;;;;;5063866;28;20058;-65
2022/08/29 05:55:10;;;;;;;1.65;1.40;;;25.10;48.70;;;;;;5064865;28;20088;-64
2022/08/29 05:57:36;;;;;;;1.73;1.48;;;25.10;48.60;;;;;;5062369;28;20115;-64
2022/08/29 06:00:04;;;;;;;2.28;1.73;;;25.00;48.80;;;;;;5064329;28;20154;-63
2022/08/29 06:02:30;;;;;;;2.22;1.45;;;25.00;49.00;;;;;;5061586;28;20055;-64
2022/08/29 06:04:56;;;;;;;1.80;1.55;;;25.00;49.00;;;;;;5064311;28;20028;-64
2022/08/29 06:07:21;;;;;;;2.40;1.88;;;25.00;49.30;;;;;;5062506;28;20068;-64
2022/08/29 06:09:51;;;;;;;2.15;1.70;;;25.00;49.50;;;;;;5062504;28;20043;-63
2022/08/29 06:12:17;;;;;;;2.22;1.50;;;24.90;49.50;;;;;;5064148;28;20028;-65
2022/08/29 06:14:43;;;;;;;2.97;1.92;;;24.80;49.70;;;;;;5062291;28;20412;-64
2022/08/29 06:17:08;;;;;;;2.50;1.90;;;24.80;49.90;;;;;;5064165;28;20033;-64
2022/08/29 06:19:34;;;;;;;2.20;1.50;;;24.80;50.00;;;;;;5062199;28;20032;-64
2022/08/29 06:22:05;;;;;;;2.13;1.58;;;24.80;50.20;;;;;;5064047;28;20488;-64
2022/08/29 06:24:31;;;;;;;2.08;1.40;;;24.80;50.30;;;;;;5062262;28;20039;-64
2022/08/29 06:26:58;;;;;;;3.33;1.50;;;24.80;50.40;;;;;;5063156;28;20036;-64
2022/08/29 06:29:25;;;;;;;2.13;1.42;;;24.70;50.50;;;;;;5063295;28;20028;-64
2022/08/29 06:31:52;;;;;;;2.22;1.60;;;24.80;50.60;;;;;;5062735;28;20033;-64
2022/08/29 06:34:18;;;;;;;2.05;1.33;;;24.70;50.60;;;;;;5061614;28;20431;-64
2022/08/29 06:36:43;;;;;;;2.63;1.42;;;24.70;50.70;;;;;;5063504;28;20051;-64
2022/08/29 06:39:10;;;;;;;2.00;1.50;;;24.70;50.70;;;;;;5062943;28;20449;-64
2022/08/29 06:41:37;;;;;;;1.80;1.33;;;24.70;50.80;;;;;;5062704;28;20098;-64
2022/08/29 06:44:03;;;;;;;1.90;1.35;;;24.70;50.80;;;;;;5061874;28;20028;-64
2022/08/29 06:46:41;;;;;;;1.95;1.25;;;24.70;50.90;;;;;;5062885;28;20132;-64
2022/08/29 06:49:10;;;;;;;2.13;1.40;;;24.70;50.90;;;;;;5061854;28;20503;-64
2022/08/29 06:51:38;;;;;;;1.50;1.20;;;24.70;51.00;;;;;;5063308;28;20025;-64
2022/08/29 06:54:06;;;;;;;1.90;1.40;;;24.70;51.00;;;;;;5061382;28;20032;-64
2022/08/29 06:56:32;;;;;;;1.95;1.30;;;24.70;51.10;;;;;;5062058;28;20021;-64
2022/08/29 06:58:58;;;;;;;1.70;1.30;;;24.70;51.10;;;;;;5063066;28;20379;-64
2022/08/29 07:01:25;;;;;;;1.30;1.20;;;24.70;51.20;;;;;;5060616;28;20039;-64
2022/08/29 07:03:56;;;;;;;1.60;1.38;;;24.70;51.20;;;;;;5062141;28;20035;-64
2022/08/29 07:06:22;;;;;;;1.92;1.20;;;24.70;51.20;;;;;;5062393;28;20124;-64
2022/08/29 07:08:48;;;;;;;1.60;1.35;;;24.70;51.20;;;;;;5065972;28;20041;-64
2022/08/29 07:11:14;;;;;;;1.42;1.20;;;24.70;51.30;;;;;;5061995;28;20086;-64
2022/08/29 07:13:40;;;;;;;1.60;1.25;;;24.70;51.30;;;;;;5062646;28;20534;-64
2022/08/29 07:16:15;;;;;;;2.10;1.20;;;24.70;51.30;;;;;;5061311;28;20029;-64
2022/08/29 07:18:41;;;;;;;2.00;1.23;;;24.70;51.40;;;;;;5062264;28;20482;-64
2022/08/29 07:21:09;;;;;;;1.45;1.20;;;24.70;51.40;;;;;;5061228;28;20108;-64
2022/08/29 07:23:36;;;;;;;1.90;1.35;;;24.70;51.40;;;;;;5060956;28;20090;-64
2022/08/29 07:26:07;;;;;;;1.50;1.20;;;24.70;51.50;;;;;;5063044;28;20025;-64
2022/08/29 07:28:33;;;;;;;1.75;1.30;;;24.70;51.50;;;;;;5062310;28;20385;-65
2022/08/29 07:30:59;;;;;;;1.60;1.40;;;24.70;51.50;;;;;;5061854;28;20033;-65
2022/08/29 07:33:24;;;;;;;2.40;1.50;;;24.70;51.60;;;;;;5061838;28;20384;-64
2022/08/29 07:35:53;;;;;;;1.90;1.30;;;24.70;51.60;;;;;;5062561;28;20025;-64
2022/08/29 07:38:19;;;;;;;2.10;1.35;;;24.70;51.60;;;;;;5077996;28;20389;-64
2022/08/29 07:40:45;;;;;;;1.35;1.15;;;24.80;51.70;;;;;;5059051;28;20482;-64
2022/08/29 07:43:10;;;;;;;1.77;1.20;;;24.70;51.70;;;;;;5063145;28;20063;-64
2022/08/29 07:45:37;;;;;;;1.70;1.30;;;24.70;51.70;;;;;;5060268;28;20035;-64
2022/08/29 07:48:03;;;;;;;1.60;1.20;;;24.70;51.70;;;;;;5062475;28;20043;-64
2022/08/29 07:50:29;;;;;;;1.83;1.25;;;24.70;51.70;;;;;;5061497;28;20465;-64
2022/08/29 07:52:54;;;;;;;1.75;1.30;;;24.70;51.80;;;;;;5061415;28;20037;-64
2022/08/29 07:55:20;;;;;;;2.00;1.50;;;24.80;51.80;;;;;;5061117;28;20033;-64
2022/08/29 07:57:47;;;;;;;1.95;1.50;;;24.70;51.80;;;;;;5067630;28;20029;-64
2022/08/29 08:00:13;;;;;;;2.15;1.30;;;24.70;52.30;;;;;;5058312;28;20029;-64
2022/08/29 08:02:39;;;;;;;2.30;1.38;;;24.80;51.90;;;;;;5060667;28;20481;-64
2022/08/29 08:05:05;;;;;;;1.85;1.50;;;24.80;51.90;;;;;;5062007;28;20100;-64
2022/08/29 08:07:33;;;;;;;1.80;1.35;;;24.80;52.00;;;;;;5060193;28;20044;-64
2022/08/29 08:09:59;;;;;;;1.70;1.30;;;24.80;52.00;;;;;;5058349;28;20246;-64
2022/08/29 08:12:25;;;;;;;1.70;1.23;;;24.80;52.00;;;;;;5061462;28;20538;-64
2022/08/29 08:14:51;;;;;;;2.20;1.60;;;24.70;52.00;;;;;;5060684;28;20051;-64
2022/08/29 08:17:17;;;;;;;2.13;1.50;;;24.80;52.00;;;;;;5060973;28;20111;-64
2022/08/29 08:19:43;;;;;;;2.08;1.70;;;24.80;52.10;;;;;;5060138;28;20025;-64
2022/08/29 08:22:09;;;;;;;2.22;1.45;;;24.80;52.10;;;;;;5061268;28;20031;-64
2022/08/29 08:24:34;;;;;;;1.85;1.40;;;24.80;52.60;;;;;;5061831;28;20024;-64
2022/08/29 08:27:00;;;;;;;2.13;1.50;;;24.80;52.10;;;;;;5059633;28;20044;-64
2022/08/29 08:29:26;;;;;;;1.92;1.50;;;24.80;52.10;;;;;;5061526;28;20040;-64
2022/08/29 08:31:54;;;;;;;2.10;1.67;;;24.80;52.10;;;;;;5060043;28;20401;-64
2022/08/29 08:34:20;;;;;;;1.85;1.35;;;24.80;52.10;;;;;;5060311;28;20027;-64
2022/08/29 08:36:46;;;;;;;1.92;1.40;;;24.80;52.20;;;;;;5060257;28;20492;-63
2022/08/29 08:39:13;;;;;;;2.58;1.70;;;24.80;52.20;;;;;;5060065;28;20025;-64
2022/08/29 08:41:53;;;;;;;1.80;1.50;;;24.80;52.20;;;;;;5061579;28;20028;-65
2022/08/29 08:44:23;;;;;;;2.15;1.60;;;24.80;52.30;;;;;;5060034;28;20028;-64
2022/08/29 08:46:58;;;;;;;2.15;1.60;;;24.80;52.30;;;;;;5057373;28;20032;-64
2022/08/29 08:49:41;;;;;;;2.60;1.60;;;24.80;52.30;;;;;;5059989;28;20508;-64
2022/08/29 08:52:14;;;;;;;2.47;1.60;;;24.80;52.40;;;;;;5061322;28;20029;-65
2022/08/29 08:54:48;;;;;;;3.53;1.70;;;24.80;52.40;;;;;;5058960;28;20558;-64
2022/08/29 08:57:14;;;;;;;2.20;1.60;;;24.80;52.50;;;;;;5060792;28;20032;-65
2022/08/29 08:59:45;;;;;;;2.83;1.77;;;24.80;52.50;;;;;;5060649;28;20033;-64
2022/08/29 09:02:16;;;;;;;2.25;1.67;;;24.80;52.50;;;;;;5059167;28;20127;-65
2022/08/29 09:05:08;;;;;;;2.22;1.88;;;24.80;52.50;;;;;;5060449;28;20028;-64
2022/08/29 09:07:48;;;;;;;2.83;1.80;;;24.80;52.60;;;;;;5059315;28;20035;-65
2022/08/29 09:10:47;;;;;;;2.67;1.70;;;24.80;52.50;;;;;;5059908;28;20025;-64
2022/08/29 09:13:24;;;;;;;2.65;1.90;;;24.80;52.60;;;;;;5060364;28;20063;-64
2022/08/29 09:15:54;;;;;;;2.63;1.80;;;24.80;52.60;;;;;;5058790;28;20488;-64
2022/08/29 09:18:20;;;;;;;2.80;1.90;;;24.80;52.60;;;;;;5061168;28;20465;-64
2022/08/29 09:20:46;;;;;;;2.65;1.88;;;24.80;52.50;;;;;;5059109;28;20067;-64
2022/08/29 09:23:38;;;;;;;2.60;1.90;;;24.90;52.60;;;;;;5061587;28;20033;-64
2022/08/29 09:26:04;;;;;;;3.03;1.90;;;24.80;52.60;;;;;;5060146;28;20488;-65
2022/08/29 09:28:30;;;;;;;2.88;2.10;;;24.80;52.60;;;;;;5059610;28;20096;-65
2022/08/29 09:31:17;;;;;;;2.55;1.75;;;24.90;52.60;;;;;;5059036;28;20117;-64
2022/08/29 09:33:55;;;;;;;2.30;1.80;;;24.80;52.60;;;;;;5060060;28;20094;-64
2022/08/29 09:36:49;;;;;;;2.42;1.90;;;24.80;52.60;;;;;;5060896;28;20495;-65
2022/08/29 09:39:31;;;;;;;2.50;2.10;;;24.80;52.70;;;;;;5060471;28;20025;-65
2022/08/29 09:42:15;;;;;;;2.70;1.83;;;24.80;52.60;;;;;;5060313;28;20028;-65
2022/08/29 09:44:52;;;;;;;3.00;2.00;;;24.90;52.70;;;;;;5061254;28;20033;-65
2022/08/29 09:47:19;;;;;;;2.72;1.90;;;24.90;52.70;;;;;;5060394;28;20031;-65
2022/08/29 09:50:20;;;;;;;2.38;1.80;;;24.90;52.70;;;;;;5064527;28;20024;-65
2022/08/29 09:53:04;;;;;;;2.67;2.00;;;24.90;52.80;;;;;;5062758;28;20029;-65
2022/08/29 09:55:32;;;;;;;2.92;2.00;;;24.90;52.90;;;;;;5062539;28;20079;-64
2022/08/29 09:58:25;;;;;;;2.40;1.88;;;24.90;52.80;;;;;;5063669;28;20024;-67
2022/08/29 10:01:04;;;;;;;2.42;1.92;;;24.90;52.80;;;;;;5063209;28;20077;-65
2022/08/29 10:03:38;;;;;;;2.75;1.90;;;24.90;52.80;;;;;;5063241;28;20020;-64
2022/08/29 10:06:21;;;;;;;2.30;1.85;;;24.90;52.80;;;;;;5064934;28;20439;-65
2022/08/29 10:08:58;;;;;;;2.38;1.98;;;24.90;52.80;;;;;;5061991;28;20487;-65
2022/08/29 10:11:28;;;;;;;3.33;1.92;;;24.90;52.90;;;;;;5063118;28;20021;-65
2022/08/29 10:14:02;;;;;;;4.13;2.08;;;24.90;52.90;;;;;;5060870;28;20497;-65
2022/08/29 10:16:55;;;;;;;2.40;1.90;;;24.90;52.80;;;;;;5062879;28;20028;-65
2022/08/29 10:19:26;;;;;;;2.60;1.88;;;24.90;52.90;;;;;;5062778;28;20021;-65
2022/08/29 10:22:01;;;;;;;2.38;1.90;;;24.90;52.80;;;;;;5063356;28;20099;-65
2022/08/29 10:24:35;;;;;;;3.00;2.22;;;24.90;52.80;;;;;;5063941;28;20025;-65
2022/08/29 10:27:24;;;;;;;2.50;1.83;;;24.90;52.80;;;;;;5063184;28;20495;-65
2022/08/29 10:30:41;;;;;;;2.72;1.92;;;24.90;52.80;;;;;;5063772;28;20033;-65
2022/08/29 10:33:32;;;;;;;2.70;1.80;;;24.90;52.80;;;;;;5029525;28;20080;-64
2022/08/29 10:36:09;;;;;;;2.70;1.90;;;24.90;52.80;;;;;;5030787;28;20091;-64
2022/08/29 10:38:46;;;;;;;2.47;1.88;;;24.90;52.70;;;;;;5053372;28;20341;-65
2022/08/29 10:41:17;;;;;;;2.75;1.95;;;25.00;52.80;;;;;;5061767;28;20032;-65
2022/08/29 10:43:54;;;;;;;2.50;1.80;;;25.00;52.80;;;;;;5060820;28;20107;-65
2022/08/29 10:46:40;;;;;;;2.55;1.80;;;25.00;52.80;;;;;;5061505;28;20087;-65
2022/08/29 10:49:22;;;;;;;2.53;2.10;;;25.00;52.80;;;;;;5062103;28;20472;-64
2022/08/29 10:51:56;;;;;;;2.67;1.92;;;24.90;52.80;;;;;;5061868;28;20108;-65
2022/08/29 10:54:46;;;;;;;2.90;2.00;;;24.90;52.80;;;;;;5078681;28;20090;-65
2022/08/29 10:57:21;;;;;;;2.72;1.92;;;24.90;52.80;;;;;;5060101;28;20369;-65
2022/08/29 11:00:03;;;;;;;2.22;1.83;;;25.00;52.90;;;;;;5060534;28;20025;-65
2022/08/29 11:02:37;;;;;;;2.40;2.00;;;25.00;52.90;;;;;;5061135;28;20174;-64
2022/08/29 11:05:11;;;;;;;2.78;2.00;;;25.00;52.90;;;;;;5061911;28;20057;-67
2022/08/29 11:07:47;;;;;;;2.30;1.80;;;25.00;52.90;;;;;;5061280;28;20040;-65
2022/08/29 11:10:19;;;;;;;3.17;2.05;;;25.00;52.90;;;;;;5061167;28;20032;-64
2022/08/29 11:13:23;;;;;;;2.80;1.95;;;25.00;52.90;;;;;;5062471;28;20491;-64
2022/08/29 11:16:12;;;;;;;2.60;2.05;;;25.00;52.90;;;;;;5062537;28;20033;-65
2022/08/29 11:19:34;;;;;;;3.00;2.20;;;25.00;53.00;;;;;;5062205;28;20036;-65
2022/08/29 11:22:11;;;;;;;2.95;2.28;;;25.00;52.90;;;;;;5000551;28;20055;-66
2022/08/29 11:24:38;;;;;;;3.10;2.10;;;25.00;52.90;;;;;;4998611;28;20372;-66
2022/08/29 11:27:44;;;;;;;3.10;2.20;;;25.00;53.00;;;;;;5042179;28;20086;-67
2022/08/29 11:30:20;;;;;;;2.72;2.05;;;25.00;52.90;;;;;;5019361;28;20034;-65
2022/08/29 11:33:17;;;;;;;2.83;2.05;;;25.00;52.90;;;;;;5054921;28;20109;-65
2022/08/29 11:35:58;;;;;;;3.20;2.10;;;25.00;52.90;;;;;;5060413;28;20064;-66
2022/08/29 11:38:53;;;;;;;3.00;2.25;;;25.00;52.90;;;;;;5058574;28;20485;-66
2022/08/29 11:41:24;;;;;;;2.25;1.80;;;25.10;52.90;;;;;;5043796;28;20388;-65
2022/08/29 11:43:53;;;;;;;2.50;2.00;;;25.10;52.90;;;;;;5059702;28;20051;-65
2022/08/29 11:46:46;;;;;;;2.92;2.13;;;25.10;52.90;;;;;;5065221;28;20479;-66
2022/08/29 11:49:30;;;;;;;2.47;1.90;;;25.10;52.90;;;;;;5060279;28;20520;-66
2022/08/29 11:52:11;;;;;;;2.70;2.00;;;25.10;52.90;;;;;;5061501;28;20040;-65
2022/08/29 11:54:38;;;;;;;3.67;2.25;;;25.10;52.80;;;;;;5061234;28;20528;-65
2022/08/29 11:57:04;;;;;;;2.65;2.00;;;25.10;52.80;;;;;;5060620;28;20500;-67
2022/08/29 11:59:48;;;;;;;2.95;2.25;;;25.10;52.80;;;;;;5062323;28;20021;-66
2022/08/29 12:02:26;;;;;;;3.13;2.30;;;25.10;52.80;;;;;;5075775;28;20060;-66
2022/08/29 12:04:53;;;;;;;2.80;2.10;;;25.10;52.80;;;;;;5060962;28;20074;-66
2022/08/29 12:07:32;;;;;;;2.70;2.00;;;25.10;52.80;;;;;;5061374;28;20031;-66
2022/08/29 12:10:01;;;;;;;2.72;2.20;;;25.10;52.80;;;;;;5059596;28;20100;-66
2022/08/29 12:12:48;;;;;;;2.53;2.05;;;25.10;52.80;;;;;;5058022;28;20036;-65
2022/08/29 12:15:28;;;;;;;2.30;1.85;;;25.10;53.30;;;;;;5061534;28;20105;-66
2022/08/29 12:17:57;;;;;;;2.40;1.80;;;25.10;52.80;;;;;;5060569;28;20021;-65
2022/08/29 12:20:34;;;;;;;2.55;1.88;;;25.10;52.80;;;;;;5058868;28;20529;-65
2022/08/29 12:23:12;;;;;;;2.20;1.77;;;25.10;52.80;;;;;;5059573;28;20029;-64
2022/08/29 12:26:01;;;;;;;2.03;1.75;;;25.10;52.80;;;;;;5059747;28;20108;-66
2022/08/29 12:28:39;;;;;;;2.53;1.90;;;25.10;52.80;;;;;;5059026;28;20093;-65
2022/08/29 12:31:43;;;;;;;2.58;1.90;;;25.10;52.80;;;;;;5061618;28;20103;-67
2022/08/29 12:34:33;;;;;;;2.17;1.75;;;25.10;52.80;;;;;;5060673;28;20029;-67
2022/08/29 12:37:20;;;;;;;2.38;1.83;;;25.20;52.90;;;;;;5060909;28;20486;-64
2022/08/29 12:40:01;;;;;;;2.60;1.77;;;25.10;52.90;;;;;;5060603;28;20087;-65
2022/08/29 12:42:43;;;;;;;2.78;1.80;;;25.10;52.90;;;;;;5060351;28;20421;-67
2022/08/29 12:45:29;;;;;;;2.40;1.80;;;25.20;52.90;;;;;;5058487;28;20440;-65
2022/08/29 12:48:38;;;;;;;2.50;1.90;;;25.20;53.00;;;;;;5060595;28;20096;-66
2022/08/29 12:51:04;;;;;;;2.55;1.85;;;25.20;53.00;;;;;;5007885;28;20486;-66
2022/08/29 12:53:33;;;;;;;2.50;1.92;;;25.20;53.00;;;;;;5008689;28;20037;-66
2022/08/29 12:56:21;;;;;;;2.42;1.88;;;25.20;53.00;;;;;;5035409;28;20041;-66
2022/08/29 12:58:59;;;;;;;2.75;1.83;;;25.20;53.10;;;;;;5059416;28;20037;-66
2022/08/29 13:01:25;;;;;;;2.63;1.80;;;25.20;53.10;;;;;;5058945;28;20033;-65
2022/08/29 13:04:05;;;;;;;2.60;1.85;;;25.20;53.10;;;;;;5077471;28;20463;-65
2022/08/29 13:06:33;;;;;;;2.70;1.90;;;25.30;53.30;;;;;;5057883;28;20032;-65
2022/08/29 13:08:59;;;;;;;2.50;1.80;;;25.30;53.30;;;;;;5059686;28;20106;-66
2022/08/29 13:11:27;;;;;;;2.65;1.98;;;25.30;53.30;;;;;;5061000;28;20029;-65
2022/08/29 13:14:22;;;;;;;2.67;2.03;;;25.30;53.20;;;;;;5060106;28;20033;-65